createdAt,value
2023-03-02T00:01:55.085Z,24.33
2023-03-02T00:04:26.835Z,24.60
2023-03-02T00:06:59.332Z,23.30
2023-03-02T00:09:27.899Z,26.95
2023-03-02T00:11:56.444Z,29.08
2023-03-02T00:14:24.794Z,25.52
2023-03-02T00:16:54.293Z,24.30
2023-03-02T00:19:22.812Z,23.77
2023-03-02T00:21:51.170Z,28.48
2023-03-02T00:24:19.603Z,25.45
2023-03-02T00:26:47.978Z,22.60
2023-03-02T00:29:16.372Z,27.00
2023-03-02T00:31:44.879Z,24.33
2023-03-02T00:34:14.400Z,26.70
2023-03-02T00:36:43.138Z,22.83
2023-03-02T00:39:11.931Z,26.02
2023-03-02T00:41:40.394Z,23.70
2023-03-02T00:44:09.132Z,24.57
2023-03-02T00:46:37.741Z,24.00
2023-03-02T00:49:06.130Z,20.45
2023-03-02T00:51:35.698Z,22.98
2023-03-02T00:54:04.477Z,22.95
2023-03-02T00:56:33.125Z,21.70
2023-03-02T00:59:06.589Z,24.40
2023-03-02T01:01:35.957Z,25.13
2023-03-02T01:04:04.645Z,23.63
2023-03-02T01:06:34.134Z,23.35
2023-03-02T01:09:05.532Z,21.03
2023-03-02T01:11:34.047Z,24.52
2023-03-02T01:14:02.474Z,21.48
2023-03-02T01:16:31.200Z,22.63
2023-03-02T01:18:59.836Z,21.98
2023-03-02T01:21:28.289Z,22.73
2023-03-02T01:23:56.665Z,23.02
2023-03-02T01:26:26.215Z,24.58
2023-03-02T01:28:55.620Z,24.35
2023-03-02T01:31:24.167Z,24.08
2023-03-02T01:33:53.430Z,20.57
2023-03-02T01:36:22.163Z,24.08
2023-03-02T01:38:50.601Z,22.25
2023-03-02T01:41:19.336Z,23.67
2023-03-02T01:43:48.866Z,25.65
2023-03-02T01:46:19.032Z,22.33
2023-03-02T01:48:55.469Z,20.17
2023-03-02T01:51:37.346Z,24.45
2023-03-02T01:54:09.974Z,23.63
2023-03-02T01:56:41.851Z,22.85
2023-03-02T01:59:14.212Z,25.53
2023-03-02T02:01:50.510Z,25.10
2023-03-02T02:04:19.483Z,21.95
2023-03-02T02:06:52.077Z,22.35
2023-03-02T02:09:22.409Z,21.00
2023-03-02T02:11:51.267Z,20.47
2023-03-02T02:14:21.032Z,20.80
2023-03-02T02:16:49.708Z,21.10
2023-03-02T02:19:31.800Z,23.92
2023-03-02T02:22:00.273Z,22.75
2023-03-02T02:24:32.857Z,21.33
2023-03-02T02:27:03.016Z,22.63
2023-03-02T02:29:34.003Z,21.52
2023-03-02T02:32:07.252Z,18.67
2023-03-02T02:34:39.597Z,22.48
2023-03-02T02:37:12.764Z,21.47
2023-03-02T02:39:45.669Z,19.83
2023-03-02T02:42:20.061Z,17.70
2023-03-02T02:44:48.992Z,20.65
2023-03-02T02:47:19.901Z,21.27
2023-03-02T02:49:50.037Z,19.67
2023-03-02T02:52:20.999Z,21.73
2023-03-02T02:54:51.970Z,21.60
2023-03-02T02:57:24.708Z,18.10
2023-03-02T02:59:56.542Z,21.98
2023-03-02T03:02:28.250Z,22.17
2023-03-02T03:05:02.669Z,18.77
2023-03-02T03:07:33.475Z,22.08
2023-03-02T03:10:12.279Z,18.88
2023-03-02T03:12:42.636Z,19.30
2023-03-02T03:15:12.558Z,19.70
2023-03-02T03:17:41.291Z,19.67
2023-03-02T03:20:11.045Z,22.40
2023-03-02T03:22:44.723Z,21.17
2023-03-02T03:25:15.551Z,20.52
2023-03-02T03:27:47.640Z,19.87
2023-03-02T03:30:16.903Z,24.67
2023-03-02T03:32:45.810Z,21.00
2023-03-02T03:35:16.358Z,20.27
2023-03-02T03:37:45.752Z,27.60
2023-03-02T03:40:16.462Z,20.13
2023-03-02T03:42:47.683Z,22.27
2023-03-02T03:45:16.824Z,20.17
2023-03-02T03:47:46.340Z,22.83
2023-03-02T03:50:14.937Z,20.90
2023-03-02T03:52:44.427Z,22.87
2023-03-02T03:55:19.573Z,19.35
2023-03-02T03:57:51.186Z,26.08
2023-03-02T04:00:21.098Z,20.73
2023-03-02T04:02:59.026Z,22.42
2023-03-02T04:05:31.514Z,28.53
2023-03-02T04:08:02.477Z,21.00
2023-03-02T04:10:32.296Z,22.13
2023-03-02T04:13:02.262Z,20.58
2023-03-02T04:15:31.102Z,20.88
2023-03-02T04:18:03.009Z,24.03
2023-03-02T04:20:32.864Z,25.00
2023-03-02T04:23:01.583Z,18.52
2023-03-02T04:25:30.837Z,20.17
2023-03-02T04:28:06.307Z,19.30
2023-03-02T04:30:38.609Z,23.40
2023-03-02T04:33:07.295Z,22.75
2023-03-02T04:35:36.848Z,25.00
2023-03-02T04:38:06.853Z,23.75
2023-03-02T04:40:35.659Z,19.60
2023-03-02T04:43:06.189Z,24.27
2023-03-02T04:45:35.793Z,20.58
2023-03-02T04:48:04.403Z,23.10
2023-03-02T04:50:32.904Z,21.73
2023-03-02T04:53:01.516Z,19.63
2023-03-02T04:55:30.106Z,20.50
2023-03-02T04:57:58.588Z,21.00
2023-03-02T05:00:28.899Z,20.05
2023-03-02T05:02:58.559Z,21.52
2023-03-02T05:05:27.035Z,19.98
2023-03-02T05:07:55.715Z,22.87
2023-03-02T05:10:24.751Z,18.63
2023-03-02T05:12:58.037Z,19.83
2023-03-02T05:15:29.735Z,23.92
2023-03-02T05:17:59.842Z,25.48
2023-03-02T05:20:30.365Z,21.93
2023-03-02T05:23:01.297Z,20.42
2023-03-02T05:25:30.986Z,20.33
2023-03-02T05:27:59.643Z,21.35
2023-03-02T05:30:28.044Z,21.30
2023-03-02T05:32:56.792Z,21.43
2023-03-02T05:35:27.387Z,18.42
2023-03-02T05:37:55.820Z,21.52
2023-03-02T05:40:24.222Z,23.83
2023-03-02T05:42:52.615Z,20.90
2023-03-02T05:45:23.665Z,21.30
2023-03-02T05:47:52.169Z,19.75
2023-03-02T05:50:20.900Z,21.13
2023-03-02T05:52:51.569Z,27.27
2023-03-02T05:55:20.299Z,18.67
2023-03-02T05:57:49.693Z,21.73
2023-03-02T06:00:19.082Z,27.20
2023-03-02T06:02:47.815Z,26.50
2023-03-02T06:05:18.519Z,20.70
2023-03-02T06:07:47.228Z,25.55
2023-03-02T06:10:17.040Z,22.00
2023-03-02T06:12:45.376Z,23.45
2023-03-02T06:15:13.782Z,24.05
2023-03-02T06:17:42.184Z,25.08
2023-03-02T06:20:13.780Z,29.42
2023-03-02T06:22:45.252Z,29.77
2023-03-02T06:25:17.606Z,39.17
2023-03-02T06:27:46.229Z,31.23
2023-03-02T06:30:16.755Z,31.85
2023-03-02T06:32:46.054Z,25.52
2023-03-02T06:35:14.814Z,28.03
2023-03-02T06:37:44.378Z,31.90
2023-03-02T06:40:14.252Z,31.70
2023-03-02T06:42:43.978Z,26.02
2023-03-02T06:45:12.982Z,30.13
2023-03-02T06:47:41.844Z,33.87
2023-03-02T06:50:11.639Z,27.20
2023-03-02T06:52:40.107Z,29.30
2023-03-02T06:55:09.311Z,29.85
2023-03-02T06:57:37.796Z,26.67
2023-03-02T07:00:14.241Z,29.77
2023-03-02T07:02:42.632Z,33.00
2023-03-02T07:05:11.189Z,29.05
2023-03-02T07:07:39.797Z,26.98
2023-03-02T07:10:13.409Z,25.60
2023-03-02T07:12:42.019Z,30.73
2023-03-02T07:15:14.368Z,24.88
2023-03-02T07:17:43.939Z,27.67
2023-03-02T07:20:14.087Z,24.40
2023-03-02T07:22:46.170Z,22.63
2023-03-02T07:25:16.194Z,22.23
2023-03-02T07:27:44.710Z,21.13
2023-03-02T07:30:15.904Z,23.55
2023-03-02T07:32:44.269Z,24.23
2023-03-02T07:35:12.679Z,26.80
2023-03-02T07:37:41.159Z,22.67
2023-03-02T07:40:11.760Z,22.95
2023-03-02T07:42:40.244Z,24.30
2023-03-02T07:45:09.705Z,24.20
2023-03-02T07:47:39.178Z,24.52
2023-03-02T07:50:08.477Z,21.67
2023-03-02T07:52:37.004Z,24.85
2023-03-02T07:55:05.612Z,23.67
2023-03-02T07:57:34.135Z,21.05
2023-03-02T08:00:02.621Z,21.30
2023-03-02T08:02:41.545Z,24.43
2023-03-02T08:05:10.807Z,21.83
2023-03-02T08:07:39.873Z,21.45
2023-03-02T08:10:08.698Z,24.05
2023-03-02T08:12:37.068Z,21.65
2023-03-02T08:15:05.911Z,22.97
2023-03-02T08:17:34.333Z,19.48
2023-03-02T08:20:05.346Z,23.77
2023-03-02T08:22:33.738Z,22.80
2023-03-02T08:25:02.257Z,22.08
2023-03-02T08:27:30.724Z,23.90
2023-03-02T08:29:59.049Z,22.20
2023-03-02T08:32:27.429Z,27.08
2023-03-02T08:34:55.845Z,20.27
2023-03-02T08:37:25.269Z,20.48
2023-03-02T08:39:53.684Z,23.23
2023-03-02T08:42:22.164Z,23.73
2023-03-02T08:44:50.510Z,20.60
2023-03-02T08:47:18.985Z,22.00
2023-03-02T08:49:48.291Z,23.35
2023-03-02T08:52:16.992Z,18.67
2023-03-02T08:54:46.681Z,21.98
2023-03-02T08:57:15.180Z,23.75
2023-03-02T08:59:43.959Z,20.15
2023-03-02T09:02:13.237Z,25.05
2023-03-02T09:04:42.325Z,22.87
2023-03-02T09:07:17.505Z,26.92
2023-03-02T09:09:50.357Z,27.77
2023-03-02T09:12:19.620Z,19.20
2023-03-02T09:15:04.309Z,22.33
2023-03-02T09:17:39.203Z,20.73
2023-03-02T09:20:28.789Z,19.77
2023-03-02T09:23:04.834Z,23.95
2023-03-02T09:25:35.184Z,23.10
2023-03-02T09:28:11.830Z,19.65
2023-03-02T09:30:57.105Z,24.83
2023-03-02T09:33:29.533Z,29.38
2023-03-02T09:35:57.954Z,24.48
2023-03-02T09:38:26.608Z,23.95
2023-03-02T09:41:25.897Z,27.50
2023-03-02T09:44:03.647Z,23.53
2023-03-02T09:46:38.739Z,20.95
2023-03-02T09:49:19.238Z,20.35
2023-03-02T09:51:56.795Z,21.98
2023-03-02T09:54:25.691Z,24.90
2023-03-02T09:56:58.900Z,19.67
2023-03-02T09:59:29.831Z,27.00
2023-03-02T10:02:03.768Z,22.42
2023-03-02T10:04:39.632Z,20.40
2023-03-02T10:07:14.749Z,20.52
2023-03-02T10:09:43.205Z,20.77
2023-03-02T10:12:43.284Z,22.48
2023-03-02T10:15:15.510Z,19.15
2023-03-02T10:17:56.583Z,25.13
2023-03-02T10:20:34.154Z,21.25
2023-03-02T10:23:18.748Z,18.67
2023-03-02T10:25:51.955Z,22.88
2023-03-02T10:28:24.073Z,20.13
2023-03-02T10:30:56.890Z,21.42
2023-03-02T10:33:25.635Z,19.30
2023-03-02T10:35:54.621Z,18.60
2023-03-02T10:38:24.246Z,17.23
2023-03-02T10:40:59.935Z,18.13
2023-03-02T10:43:34.728Z,19.60
2023-03-02T10:46:03.958Z,14.85
2023-03-02T10:48:32.334Z,17.70
2023-03-02T10:51:01.345Z,17.42
2023-03-02T10:53:30.089Z,21.50
2023-03-02T10:55:58.587Z,19.75
2023-03-02T10:58:31.534Z,21.83
2023-03-02T11:01:02.011Z,17.17
2023-03-02T11:03:30.726Z,19.70
2023-03-02T11:06:00.507Z,16.05
2023-03-02T11:08:31.710Z,17.17
2023-03-02T11:11:01.780Z,21.17
2023-03-02T11:13:33.771Z,17.37
2023-03-02T11:16:03.681Z,21.58
2023-03-02T11:18:35.805Z,17.02
2023-03-02T11:21:06.669Z,16.98
2023-03-02T11:23:42.082Z,17.60
2023-03-02T11:26:19.597Z,20.10
2023-03-02T11:28:55.583Z,15.13
2023-03-02T11:31:31.323Z,17.17
2023-03-02T11:34:17.653Z,17.55
2023-03-02T11:36:56.566Z,16.52
2023-03-02T11:39:32.180Z,16.63
2023-03-02T11:42:00.709Z,21.63
2023-03-02T11:44:30.603Z,16.17
2023-03-02T11:47:02.382Z,20.20
2023-03-02T11:49:39.164Z,16.88
2023-03-02T11:52:17.062Z,19.03
2023-03-02T11:54:47.673Z,16.15
2023-03-02T11:57:23.807Z,15.15
2023-03-02T11:59:55.364Z,18.55
2023-03-02T12:02:24.156Z,15.00
2023-03-02T12:05:03.084Z,14.43
2023-03-02T12:07:31.749Z,14.10
2023-03-02T12:10:06.243Z,23.13
2023-03-02T12:12:42.188Z,14.73
2023-03-02T12:15:36.161Z,17.60
2023-03-02T12:18:04.760Z,15.10
2023-03-02T12:20:34.079Z,15.27
2023-03-02T12:23:23.472Z,15.18
2023-03-02T12:25:52.219Z,19.02
2023-03-02T12:28:28.745Z,16.83
2023-03-02T12:31:10.865Z,16.47
2023-03-02T12:33:48.588Z,14.52
2023-03-02T12:36:24.201Z,28.52
2023-03-02T12:39:04.200Z,17.15
2023-03-02T12:41:58.370Z,15.57
2023-03-02T12:44:38.707Z,17.87
2023-03-02T12:47:18.549Z,17.30
2023-03-02T12:49:52.454Z,17.15
2023-03-02T12:52:24.504Z,18.33
2023-03-02T12:55:05.923Z,17.73
2023-03-02T12:57:35.014Z,17.73
2023-03-02T13:00:05.356Z,15.60
2023-03-02T13:02:37.424Z,17.30
2023-03-02T13:05:08.576Z,19.20
2023-03-02T13:07:44.901Z,20.00
2023-03-02T13:10:24.004Z,19.83
2023-03-02T13:12:52.616Z,14.98
2023-03-02T13:15:21.403Z,15.18
2023-03-02T13:17:57.036Z,14.57
2023-03-02T13:20:28.499Z,22.98
2023-03-02T13:22:57.596Z,16.70
2023-03-02T13:25:29.551Z,17.13
2023-03-02T13:28:00.729Z,17.88
2023-03-02T13:30:31.734Z,16.60
2023-03-02T13:33:04.149Z,15.02
2023-03-02T13:35:34.432Z,16.23
2023-03-02T13:38:05.676Z,27.83
2023-03-02T13:40:43.077Z,22.30
2023-03-02T13:43:39.309Z,24.10
2023-03-02T13:46:23.879Z,24.58
2023-03-02T13:49:09.043Z,22.83
2023-03-02T13:51:42.037Z,23.13
2023-03-02T13:54:21.153Z,23.80
2023-03-02T13:56:51.221Z,24.33
2023-03-02T13:59:22.303Z,21.08
2023-03-02T14:01:52.356Z,22.30
2023-03-02T14:04:24.354Z,22.42
2023-03-02T14:06:53.557Z,20.50
2023-03-02T14:09:22.365Z,25.10
2023-03-02T14:11:53.340Z,26.92
2023-03-02T14:14:24.486Z,23.13
2023-03-02T14:16:56.120Z,25.60
2023-03-02T14:19:26.066Z,26.27
2023-03-02T14:21:54.767Z,23.75
2023-03-02T14:24:28.483Z,24.38
2023-03-02T14:26:57.037Z,25.13
2023-03-02T14:29:28.180Z,23.10
2023-03-02T14:32:00.559Z,24.90
2023-03-02T14:34:33.849Z,23.40
2023-03-02T14:37:10.309Z,20.77
2023-03-02T14:39:40.778Z,22.27
2023-03-02T14:42:14.670Z,25.25
2023-03-02T14:44:43.458Z,25.92
2023-03-02T14:47:11.825Z,23.85
2023-03-02T14:49:43.877Z,26.50
2023-03-02T14:52:17.837Z,24.97
2023-03-02T14:54:52.233Z,28.30
2023-03-02T14:57:25.534Z,26.05
2023-03-02T14:59:54.922Z,25.58
2023-03-02T15:02:26.918Z,27.88
2023-03-02T15:04:58.121Z,27.20
2023-03-02T15:07:27.189Z,33.83
2023-03-02T15:09:56.325Z,32.22
2023-03-02T15:12:26.458Z,27.55
2023-03-02T15:14:55.137Z,27.83
2023-03-02T15:17:24.007Z,36.17
2023-03-02T15:19:52.824Z,31.20
2023-03-02T15:22:25.585Z,27.65
2023-03-02T15:24:54.166Z,32.75
2023-03-02T15:27:23.781Z,29.15
2023-03-02T15:29:52.813Z,29.13
2023-03-02T15:32:22.361Z,28.63
2023-03-02T15:34:51.158Z,30.48
2023-03-02T15:37:19.679Z,29.55
2023-03-02T15:39:54.588Z,29.05
2023-03-02T15:42:23.280Z,28.93
2023-03-02T15:44:51.667Z,32.72
2023-03-02T15:47:20.170Z,31.63
2023-03-02T15:49:48.724Z,30.80
2023-03-02T15:52:19.039Z,32.65
2023-03-02T15:54:48.661Z,30.23
2023-03-02T15:57:17.612Z,35.70
2023-03-02T15:59:46.444Z,35.75
2023-03-02T16:02:15.323Z,32.88
2023-03-02T16:04:44.010Z,32.40
2023-03-02T16:07:13.018Z,35.53
2023-03-02T16:09:42.120Z,32.83
2023-03-02T16:12:15.695Z,35.22
2023-03-02T16:14:44.600Z,32.60
2023-03-02T16:17:13.584Z,30.02
2023-03-02T16:19:42.688Z,29.37
2023-03-02T16:22:12.201Z,30.73
2023-03-02T16:24:41.887Z,36.28
2023-03-02T16:27:10.713Z,33.70
2023-03-02T16:29:40.921Z,27.90
2023-03-02T16:32:10.042Z,28.87
2023-03-02T16:34:38.908Z,34.25
2023-03-02T16:37:07.783Z,33.28
2023-03-02T16:39:36.986Z,28.65
2023-03-02T16:42:05.981Z,31.00
2023-03-02T16:44:34.884Z,31.47
2023-03-02T16:47:05.941Z,33.22
2023-03-02T16:49:34.935Z,30.02
2023-03-02T16:52:04.110Z,32.83
2023-03-02T16:54:33.004Z,33.83
2023-03-02T16:57:02.538Z,31.13
2023-03-02T16:59:34.595Z,35.80
2023-03-02T17:02:09.518Z,35.33
2023-03-02T17:04:42.040Z,33.70
2023-03-02T17:07:15.006Z,30.92
2023-03-02T17:09:47.870Z,35.63
2023-03-02T17:12:20.584Z,34.63
2023-03-02T17:18:50.428Z,34.63
2023-03-02T17:21:19.283Z,34.05
2023-03-02T17:23:53.681Z,35.50
2023-03-02T17:26:21.952Z,36.63
2023-03-02T17:28:51.012Z,36.92
2023-03-02T17:31:26.767Z,35.70
2023-03-02T17:34:00.358Z,36.22
2023-03-02T17:36:29.617Z,31.30
2023-03-02T17:38:58.646Z,42.65
2023-03-02T17:41:27.990Z,33.80
2023-03-02T17:43:56.844Z,35.80
2023-03-02T17:46:27.907Z,33.60
2023-03-02T17:49:03.517Z,31.93
2023-03-02T17:51:32.682Z,32.67
2023-03-02T17:54:01.809Z,39.20
2023-03-02T17:56:32.366Z,36.40
2023-03-02T17:59:02.660Z,38.95
2023-03-02T18:01:37.458Z,37.53
2023-03-02T18:04:07.419Z,35.63
2023-03-02T18:06:36.056Z,40.92
2023-03-02T18:09:04.741Z,36.10
2023-03-02T18:11:33.343Z,35.97
2023-03-02T18:14:02.113Z,37.90
2023-03-02T18:16:30.982Z,38.58
2023-03-02T18:19:00.340Z,43.13
2023-03-02T18:21:30.652Z,43.63
2023-03-02T18:24:02.291Z,35.80
2023-03-02T18:26:33.552Z,37.87
2023-03-02T18:29:02.946Z,36.72
2023-03-02T18:31:43.513Z,41.67
2023-03-02T18:34:12.417Z,41.85
2023-03-02T18:36:42.418Z,42.30
2023-03-02T18:39:14.705Z,39.00
2023-03-02T18:41:43.792Z,37.78
2023-03-02T18:44:12.459Z,42.03
2023-03-02T18:46:41.570Z,43.97
2023-03-02T18:49:19.278Z,39.08
2023-03-02T18:51:49.633Z,44.23
2023-03-02T18:54:32.392Z,41.15
2023-03-02T18:57:41.874Z,45.42
2023-03-02T19:00:21.809Z,39.90
2023-03-02T19:03:19.890Z,41.45
2023-03-02T19:05:59.532Z,39.07
2023-03-02T19:09:04.701Z,44.40
2023-03-02T19:11:37.646Z,40.30
2023-03-02T19:14:08.723Z,39.67
2023-03-02T19:16:41.926Z,39.55
2023-03-02T19:21:54.533Z,43.33
2023-03-02T19:24:43.574Z,46.25
2023-03-02T19:27:44.048Z,39.33
2023-03-02T19:30:23.757Z,47.47
2023-03-02T19:32:58.212Z,39.87
2023-03-02T19:35:32.906Z,45.67
2023-03-02T19:38:04.861Z,38.72
2023-03-02T19:40:35.618Z,41.90
2023-03-02T19:43:05.462Z,41.92
2023-03-02T19:45:36.486Z,50.10
2023-03-02T19:48:06.277Z,44.80
2023-03-02T19:50:35.180Z,44.75
2023-03-02T19:53:04.370Z,48.95
2023-03-02T19:55:34.321Z,40.78
2023-03-02T19:58:05.420Z,41.60
2023-03-02T20:00:36.514Z,45.45
2023-03-02T20:03:06.542Z,46.13
2023-03-02T20:05:35.680Z,42.80
2023-03-02T20:08:05.095Z,49.67
2023-03-02T20:10:44.345Z,44.30
2023-03-02T20:13:18.340Z,42.75
2023-03-02T20:15:58.510Z,47.58
2023-03-02T20:18:27.678Z,56.83
2023-03-02T20:20:57.503Z,46.28
2023-03-02T20:23:28.032Z,54.77
2023-03-02T20:25:57.835Z,63.13
2023-03-02T20:28:28.474Z,45.55
2023-03-02T20:31:00.580Z,46.28
2023-03-02T20:33:37.843Z,63.47
2023-03-02T20:36:10.212Z,70.30
2023-03-02T20:38:49.752Z,56.55
2023-03-02T20:41:24.678Z,47.88
2023-03-02T20:43:57.159Z,47.92
2023-03-02T20:46:32.450Z,62.03
2023-03-02T20:49:08.568Z,64.83
2023-03-02T20:51:48.321Z,79.80
2023-03-02T20:54:18.106Z,53.97
2023-03-02T20:56:47.533Z,49.60
2023-03-02T20:59:18.177Z,71.40
2023-03-02T21:01:57.376Z,60.80
2023-03-02T21:04:36.779Z,55.47
2023-03-02T21:07:08.679Z,50.90
2023-03-02T21:09:40.737Z,49.85
2023-03-02T21:12:11.962Z,47.03
2023-03-02T21:14:46.034Z,57.27
2023-03-02T21:17:15.113Z,56.50
2023-03-02T21:19:44.021Z,75.18
2023-03-02T21:22:14.655Z,54.47
2023-03-02T21:24:46.016Z,45.60
2023-03-02T21:27:14.935Z,65.37
2023-03-02T21:29:44.981Z,78.45
2023-03-02T21:32:16.303Z,80.75
2023-03-02T21:34:46.210Z,45.92
2023-03-02T21:37:15.344Z,56.20
2023-03-02T21:39:46.684Z,60.47
2023-03-02T21:42:17.842Z,78.32
2023-03-02T21:44:47.908Z,71.13
2023-03-02T21:47:16.952Z,57.17
2023-03-02T21:49:48.591Z,54.22
2023-03-02T21:52:27.115Z,50.50
2023-03-02T21:54:56.028Z,52.53
2023-03-02T21:58:01.065Z,49.45
2023-03-02T22:00:34.153Z,93.93
2023-03-02T22:03:03.644Z,72.13
2023-03-02T22:05:32.689Z,70.13
2023-03-02T22:08:01.308Z,83.00
2023-03-02T22:10:33.022Z,60.17
2023-03-02T22:13:18.776Z,82.07
2023-03-02T22:15:50.177Z,107.80
2023-03-02T22:18:21.783Z,49.53
2023-03-02T22:21:15.336Z,132.27
2023-03-02T22:23:45.560Z,86.85
2023-03-02T22:26:19.377Z,90.95
2023-03-02T22:28:48.366Z,46.58
2023-03-02T22:31:26.226Z,49.70
2023-03-02T22:33:59.517Z,48.53
2023-03-02T22:36:30.738Z,48.70
2023-03-02T22:39:10.760Z,50.05
2023-03-02T22:41:39.653Z,50.28
2023-03-02T22:44:16.436Z,47.00
2023-03-02T22:47:02.134Z,45.15
2023-03-02T22:49:35.017Z,49.25
2023-03-02T22:52:13.354Z,45.90
2023-03-02T22:58:14.434Z,51.40
2023-03-02T23:01:40.792Z,43.88
2023-03-02T23:08:19.677Z,48.50
2023-03-02T23:10:51.275Z,51.53
2023-03-02T23:13:25.599Z,51.50
2023-03-02T23:15:58.971Z,47.55
2023-03-02T23:18:30.381Z,53.50
2023-03-02T23:20:59.924Z,52.78
2023-03-02T23:23:28.610Z,46.35
2023-03-02T23:26:31.787Z,49.07
2023-03-02T23:29:00.266Z,47.33
2023-03-02T23:31:28.780Z,48.85
2023-03-02T23:33:57.371Z,52.75
2023-03-02T23:36:27.768Z,50.70
2023-03-02T23:38:56.296Z,53.93
2023-03-02T23:41:24.718Z,52.22
2023-03-02T23:43:53.263Z,43.78
2023-03-02T23:46:21.732Z,48.78
2023-03-02T23:48:51.658Z,51.55
2023-03-02T23:51:20.598Z,50.83
2023-03-02T23:53:50.320Z,46.47
2023-03-02T23:56:18.796Z,49.20
2023-03-02T23:58:48.100Z,45.80
